Time;durP1;ratioP1;P1;durP2;ratioP2;P2;SDS_P1;SDS_P2;PMS_P1;PMS_P2;Temp;Humidity;BMP_temperature;BMP_pressure;BME280_temperature;BME280_humidity;BME280_pressure;Samples;Min_cycle;Max_cycle;Signal;HPM_P1;HPM_P2
2022/09/11 00:00:58;;;;;;;4.15;1.50;;;;;;;;;;4998472;28;20411;-88
2022/09/11 00:03:23;;;;;;;2.95;1.40;;;;;;;;;;4999000;28;20065;-88
2022/09/11 00:05:51;;;;;;;3.55;1.60;;;;;;;;;;4998230;28;20040;-88
2022/09/11 00:08:17;;;;;;;4.57;1.70;;;;;;;;;;4982060;28;20036;-88
2022/09/11 00:10:44;;;;;;;3.63;1.58;;;;;;;;;;4998403;28;20036;-88
2022/09/11 00:13:13;;;;;;;3.53;1.80;;;;;;;;;;4998664;28;20566;-88
2022/09/11 00:15:40;;;;;;;4.95;1.58;;;;;;;;;;4998625;28;20132;-88
2022/09/11 00:18:07;;;;;;;3.05;1.55;;;;;;;;;;4998364;28;20499;-88
2022/09/11 00:20:33;;;;;;;3.97;1.70;;;;;;;;;;4998289;28;20034;-89
2022/09/11 00:23:03;;;;;;;3.28;1.67;;;;;;;;;;4997888;28;20500;-88
2022/09/11 00:25:34;;;;;;;4.57;1.70;;;;;;;;;;4982605;28;20037;-88
2022/09/11 00:28:03;;;;;;;4.13;1.95;;;;;;;;;;5014566;28;20029;-89
2022/09/11 00:30:29;;;;;;;5.75;2.40;;;;;;;;;;4998320;28;20048;-89
2022/09/11 00:32:58;;;;;;;3.35;1.65;;;;;;;;;;4998264;28;20030;-88
2022/09/11 00:35:24;;;;;;;3.33;1.73;;;;;;;;;;4997883;28;20049;-88
2022/09/11 00:37:50;;;;;;;2.60;1.73;;;;;;;;;;4998236;28;20095;-88
2022/09/11 00:40:16;;;;;;;5.82;2.20;;;;;;;;;;5002059;28;20038;-88
2022/09/11 00:42:42;;;;;;;3.13;1.75;;;;;;;;;;5001713;28;20048;-88
2022/09/11 00:45:19;;;;;;;4.00;1.58;;;;;;;;;;4999075;28;20041;-88
2022/09/11 00:47:45;;;;;;;2.58;1.48;;;;;;;;;;5014353;28;20424;-88
2022/09/11 00:50:16;;;;;;;3.25;1.50;;;;;;;;;;4982070;28;20152;-88
2022/09/11 00:52:48;;;;;;;4.13;1.92;;;;;;;;;;5014930;28;20038;-88
2022/09/11 00:55:15;;;;;;;4.03;1.98;;;;;;;;;;4998470;28;20080;-88
2022/09/11 00:57:43;;;;;;;3.53;1.70;;;;;;;;;;4998300;28;20129;-89
2022/09/11 01:00:09;;;;;;;4.93;2.00;;;;;;;;;;5014104;28;20415;-88
2022/09/11 01:02:37;;;;;;;3.47;1.77;;;;;;;;;;5014198;28;20088;-88
2022/09/11 01:05:02;;;;;;;3.90;1.80;;;;;;;;;;4997418;28;20037;-88
2022/09/11 01:07:28;;;;;;;3.00;1.80;;;;;;;;;;5014346;28;20117;-87
2022/09/11 01:09:54;;;;;;;5.97;2.45;;;;;;;;;;4982290;28;20038;-89
2022/09/11 01:12:59;;;;;;;4.18;2.05;;;;;;;;;;4981838;28;20100;-88
2022/09/11 01:16:02;;;;;;;3.28;1.77;;;;;;;;;;4955454;29;20506;-88
2022/09/11 01:18:56;;;;;;;3.80;2.10;;;;;;;;;;4975641;28;20447;-88
2022/09/11 01:21:33;;;;;;;3.80;2.22;;;;;;;;;;4997846;28;20168;-88
2022/09/11 01:24:21;;;;;;;2.78;1.80;;;;;;;;;;5014100;28;20036;-88
2022/09/11 01:27:24;;;;;;;4.38;2.08;;;;;;;;;;5014415;28;20064;-88
2022/09/11 01:29:54;;;;;;;3.28;1.67;;;;;;;;;;4997657;28;20072;-88
2022/09/11 01:32:23;;;;;;;4.47;2.15;;;;;;;;;;5013496;28;20504;-87
2022/09/11 01:34:59;;;;;;;3.47;2.17;;;;;;;;;;4997348;28;20030;-88
2022/09/11 01:37:34;;;;;;;3.17;1.92;;;;;;;;;;5013939;28;20552;-88
2022/09/11 01:40:04;;;;;;;4.65;1.73;;;;;;;;;;5013668;28;20065;-88
2022/09/11 01:42:30;;;;;;;4.72;2.00;;;;;;;;;;4997470;28;20046;-88
2022/09/11 01:44:56;;;;;;;3.63;1.73;;;;;;;;;;5017256;28;20029;-88
2022/09/11 01:47:24;;;;;;;3.25;2.47;;;;;;;;;;5001036;28;20033;-88
2022/09/11 01:50:17;;;;;;;3.88;2.08;;;;;;;;;;5000911;28;20033;-87
2022/09/11 01:52:57;;;;;;;3.67;1.77;;;;;;;;;;5012775;28;20076;-88
2022/09/11 01:55:33;;;;;;;3.38;1.70;;;;;;;;;;5000797;28;20033;-88
2022/09/11 01:58:14;;;;;;;4.13;2.15;;;;;;;;;;5000714;28;20128;-88
2022/09/11 02:00:41;;;;;;;5.60;2.30;;;;;;;;;;5002867;28;20037;-88
2022/09/11 02:03:14;;;;;;;4.25;2.40;;;;;;;;;;5000399;28;20033;-87
2022/09/11 02:05:42;;;;;;;3.92;2.75;;;;;;;;;;5000467;28;20036;-89
2022/09/11 02:08:22;;;;;;;3.45;2.13;;;;;;;;;;5000788;28;20103;-88
2022/09/11 02:10:50;;;;;;;3.42;2.08;;;;;;;;;;5000935;28;20038;-88
2022/09/11 02:13:21;;;;;;;3.42;2.30;;;;;;;;;;5000514;28;20037;-88
2022/09/11 02:15:52;;;;;;;5.25;2.13;;;;;;;;;;5000291;28;20049;-88
2022/09/11 02:18:27;;;;;;;4.75;2.35;;;;;;;;;;5016298;28;20033;-86
2022/09/11 02:20:52;;;;;;;3.78;2.70;;;;;;;;;;4999930;28;20037;-86
2022/09/11 02:23:18;;;;;;;4.05;2.80;;;;;;;;;;5016306;28;20472;-88
2022/09/11 02:25:45;;;;;;;4.70;2.58;;;;;;;;;;4999852;28;20496;-88
2022/09/11 02:28:13;;;;;;;5.30;2.47;;;;;;;;;;4999663;28;20175;-87
2022/09/11 02:30:39;;;;;;;4.03;2.58;;;;;;;;;;5000156;28;20045;-87
2022/09/11 02:33:28;;;;;;;5.10;2.88;;;;;;;;;;4999634;28;20038;-88
2022/09/11 02:35:53;;;;;;;4.43;2.92;;;;;;;;;;5016014;28;20050;-88
2022/09/11 02:38:28;;;;;;;5.75;3.10;;;;;;;;;;5032430;28;20046;-87
2022/09/11 02:41:01;;;;;;;4.03;2.85;;;;;;;;;;5015959;28;20045;-88
2022/09/11 02:43:41;;;;;;;4.05;3.40;;;;;;;;;;5015307;28;20033;-87
2022/09/11 02:46:33;;;;;;;5.15;3.50;;;;;;;;;;4979229;28;20037;-87
2022/09/11 02:49:05;;;;;;;5.03;3.67;;;;;;;;;;4963949;28;20038;-87
2022/09/11 02:51:50;;;;;;;;;;;;;;;;;;4995822;28;20038;-87
2022/09/11 02:54:54;;;;;;;5.80;3.95;;;;;;;;;;4995288;28;19953;-87
2022/09/11 02:57:22;;;;;;;6.70;4.78;;;;;;;;;;4901258;29;20142;-87
2022/09/11 02:59:53;;;;;;;6.32;4.20;;;;;;;;;;4992751;28;20096;-87
2022/09/11 03:02:18;;;;;;;6.75;3.85;;;;;;;;;;4978458;28;20041;-87
2022/09/11 03:04:47;;;;;;;4.90;3.47;;;;;;;;;;4978645;28;20038;-87
2022/09/11 03:07:12;;;;;;;4.90;3.75;;;;;;;;;;4994942;28;20038;-88
2022/09/11 03:09:40;;;;;;;5.93;3.95;;;;;;;;;;4995044;28;20084;-87
2022/09/11 03:12:06;;;;;;;5.40;4.63;;;;;;;;;;5011240;28;20034;-87
2022/09/11 03:14:31;;;;;;;4.90;3.38;;;;;;;;;;4978812;28;20037;-87
2022/09/11 03:17:00;;;;;;;5.47;3.70;;;;;;;;;;4978850;28;20030;-88
2022/09/11 03:19:27;;;;;;;6.05;4.30;;;;;;;;;;4962716;28;20044;-88
2022/09/11 03:21:52;;;;;;;6.22;4.32;;;;;;;;;;4994829;28;20022;-87
2022/09/11 03:24:20;;;;;;;5.18;3.70;;;;;;;;;;4978985;28;20036;-87
2022/09/11 03:26:47;;;;;;;5.82;4.03;;;;;;;;;;4978645;28;20030;-87
2022/09/11 03:29:13;;;;;;;5.72;4.03;;;;;;;;;;4978724;28;20037;-88
2022/09/11 03:31:41;;;;;;;6.20;4.45;;;;;;;;;;4978714;28;20064;-87
2022/09/11 03:34:09;;;;;;;6.35;4.05;;;;;;;;;;4978392;28;20045;-87
2022/09/11 03:36:35;;;;;;;4.88;3.95;;;;;;;;;;4978736;28;20507;-87
2022/09/11 03:39:02;;;;;;;6.18;4.53;;;;;;;;;;4962210;28;20073;-87
2022/09/11 03:41:29;;;;;;;5.50;4.13;;;;;;;;;;4978146;28;20041;-87
2022/09/11 03:43:56;;;;;;;5.75;4.22;;;;;;;;;;4943306;28;1118132;-88
2022/09/11 03:46:23;;;;;;;5.25;3.83;;;;;;;;;;4982667;28;20033;-87
2022/09/11 03:48:51;;;;;;;4.70;4.05;;;;;;;;;;5014769;28;20038;-88
2022/09/11 03:51:16;;;;;;;5.68;4.43;;;;;;;;;;4982320;28;20033;-88
2022/09/11 03:53:43;;;;;;;4.68;3.67;;;;;;;;;;4998657;28;20180;-87
2022/09/11 03:56:09;;;;;;;5.70;4.43;;;;;;;;;;4998440;28;20033;-88
2022/09/11 03:58:34;;;;;;;5.18;3.72;;;;;;;;;;4998211;28;20206;-88
2022/09/11 04:01:00;;;;;;;4.88;3.70;;;;;;;;;;4998328;28;20033;-87
2022/09/11 04:03:25;;;;;;;7.03;4.63;;;;;;;;;;5014694;28;20041;-88
2022/09/11 04:05:58;;;;;;;7.03;4.45;;;;;;;;;;4998004;28;20033;-87
2022/09/11 04:08:24;;;;;;;6.50;4.30;;;;;;;;;;4998299;28;20044;-87
2022/09/11 04:11:01;;;;;;;6.03;4.38;;;;;;;;;;4998111;28;20037;-87
2022/09/11 04:13:32;;;;;;;5.65;4.68;;;;;;;;;;5013677;28;20048;-87
2022/09/11 04:16:03;;;;;;;6.05;4.60;;;;;;;;;;4998249;28;20061;-88
2022/09/11 04:18:33;;;;;;;5.45;4.30;;;;;;;;;;5015012;28;20037;-88
2022/09/11 04:21:03;;;;;;;5.38;4.07;;;;;;;;;;4998353;28;20040;-87
2022/09/11 04:23:31;;;;;;;6.88;4.93;;;;;;;;;;4998497;28;20507;-88
2022/09/11 04:25:57;;;;;;;6.60;4.63;;;;;;;;;;4998328;28;20117;-87
2022/09/11 04:28:28;;;;;;;6.00;4.60;;;;;;;;;;4998108;28;20045;-87
2022/09/11 04:30:57;;;;;;;5.38;4.22;;;;;;;;;;5014332;28;20037;-87
2022/09/11 04:33:24;;;;;;;5.95;4.43;;;;;;;;;;4999058;28;20404;-87
2022/09/11 04:35:51;;;;;;;5.53;4.60;;;;;;;;;;5013799;28;20052;-88
2022/09/11 04:38:18;;;;;;;7.10;4.90;;;;;;;;;;5014208;28;20041;-88
2022/09/11 04:40:44;;;;;;;7.38;4.63;;;;;;;;;;4992126;28;20069;-87
2022/09/11 04:43:10;;;;;;;7.30;4.95;;;;;;;;;;4965396;28;20076;-87
2022/09/11 04:45:39;;;;;;;5.95;4.45;;;;;;;;;;4982183;28;20559;-88
2022/09/11 04:48:07;;;;;;;6.25;4.97;;;;;;;;;;4966197;28;20042;-87
2022/09/11 04:50:33;;;;;;;5.85;4.97;;;;;;;;;;4981669;28;20032;-88
2022/09/11 04:52:59;;;;;;;6.03;4.90;;;;;;;;;;4965404;28;20034;-87
2022/09/11 04:55:25;;;;;;;6.47;5.05;;;;;;;;;;4981819;28;20069;-87
2022/09/11 04:57:52;;;;;;;6.80;5.50;;;;;;;;;;4965700;28;20083;-87
2022/09/11 05:00:19;;;;;;;7.38;5.25;;;;;;;;;;4966256;28;20029;-87
2022/09/11 05:02:46;;;;;;;5.80;4.82;;;;;;;;;;4981619;28;20068;-87
2022/09/11 05:05:12;;;;;;;7.30;5.18;;;;;;;;;;4998317;28;20029;-87
2022/09/11 05:07:38;;;;;;;7.40;5.10;;;;;;;;;;4965777;28;20033;-87
2022/09/11 05:10:05;;;;;;;7.10;4.88;;;;;;;;;;4997580;28;20235;-88
2022/09/11 05:12:31;;;;;;;7.50;5.20;;;;;;;;;;4964842;28;20072;-87
2022/09/11 05:14:56;;;;;;;7.57;5.82;;;;;;;;;;4965249;28;20029;-87
2022/09/11 05:17:23;;;;;;;6.30;5.22;;;;;;;;;;4965214;28;20029;-86
2022/09/11 05:19:48;;;;;;;6.60;5.20;;;;;;;;;;4997088;28;20030;-87
2022/09/11 05:22:15;;;;;;;7.43;5.80;;;;;;;;;;4980789;28;20052;-87
2022/09/11 05:24:40;;;;;;;7.65;5.60;;;;;;;;;;4998951;28;20057;-87
2022/09/11 05:27:08;;;;;;;6.85;5.30;;;;;;;;;;4980430;28;20033;-87
2022/09/11 05:29:34;;;;;;;7.03;5.10;;;;;;;;;;4969149;28;20033;-87
2022/09/11 05:32:01;;;;;;;6.47;5.43;;;;;;;;;;4965026;28;20064;-88
2022/09/11 05:34:28;;;;;;;8.82;5.47;;;;;;;;;;4981718;28;20113;-87
2022/09/11 05:36:56;;;;;;;6.55;5.13;;;;;;;;;;4986184;28;20036;-87
2022/09/11 05:39:25;;;;;;;6.57;5.25;;;;;;;;;;4968680;28;20029;-88
2022/09/11 05:41:52;;;;;;;6.70;5.65;;;;;;;;;;4983683;28;20411;-87
2022/09/11 05:44:17;;;;;;;7.60;5.22;;;;;;;;;;4983714;28;20034;-87
2022/09/11 05:46:47;;;;;;;7.53;5.32;;;;;;;;;;4997379;28;20034;-88
2022/09/11 05:49:14;;;;;;;6.30;5.03;;;;;;;;;;4981674;28;20057;-87
2022/09/11 05:51:40;;;;;;;6.72;5.07;;;;;;;;;;4980898;28;20096;-88
2022/09/11 05:54:07;;;;;;;6.40;4.63;;;;;;;;;;4997315;28;20041;-85
2022/09/11 05:56:33;;;;;;;6.15;4.30;;;;;;;;;;4981099;28;20030;-87
2022/09/11 05:58:59;;;;;;;6.68;5.43;;;;;;;;;;4981493;28;20378;-87
2022/09/11 06:01:25;;;;;;;6.15;4.47;;;;;;;;;;4981217;28;20124;-89
2022/09/11 06:03:51;;;;;;;4.93;4.13;;;;;;;;;;4981491;28;20033;-88
2022/09/11 06:06:20;;;;;;;6.03;4.78;;;;;;;;;;4997069;28;20037;-88
2022/09/11 06:08:47;;;;;;;7.85;5.28;;;;;;;;;;4996512;28;20038;-88
2022/09/11 06:11:16;;;;;;;6.35;4.97;;;;;;;;;;4981006;28;20404;-89
2022/09/11 06:13:45;;;;;;;6.40;4.78;;;;;;;;;;4980823;28;20408;-88
2022/09/11 06:16:12;;;;;;;11.98;5.97;;;;;;;;;;4981254;28;20091;-90
2022/09/11 06:18:41;;;;;;;8.20;4.82;;;;;;;;;;4981181;28;20037;-90
2022/09/11 06:21:11;;;;;;;7.40;5.65;;;;;;;;;;4997146;28;20459;-87
2022/09/11 06:23:38;;;;;;;7.53;5.07;;;;;;;;;;4980960;28;20045;-90
2022/09/11 06:26:08;;;;;;;7.47;5.00;;;;;;;;;;4981599;28;20026;-90
2022/09/11 06:28:37;;;;;;;7.63;5.40;;;;;;;;;;4981538;28;20409;-90
2022/09/11 06:31:18;;;;;;;8.75;5.47;;;;;;;;;;5000995;28;20034;-90
2022/09/11 06:33:46;;;;;;;7.75;4.93;;;;;;;;;;5002881;28;20030;-92
2022/09/11 06:36:56;;;;;;;6.60;5.32;;;;;;;;;;4999839;28;20038;-93
2022/09/11 06:39:47;;;;;;;6.95;5.35;;;;;;;;;;5032252;28;20843;-92
2022/09/11 06:42:22;;;;;;;7.28;5.40;;;;;;;;;;5000452;28;20037;-95
2022/09/11 06:44:51;;;;;;;6.95;4.95;;;;;;;;;;5016969;28;20446;-90
2022/09/11 06:47:16;;;;;;;7.43;4.75;;;;;;;;;;5000094;28;20423;-87
2022/09/11 06:49:43;;;;;;;10.15;4.95;;;;;;;;;;4999777;28;20033;-89
2022/09/11 06:52:12;;;;;;;9.48;5.10;;;;;;;;;;4983903;28;20033;-89
2022/09/11 06:54:38;;;;;;;9.02;5.65;;;;;;;;;;4997766;28;20054;-86
2022/09/11 06:57:06;;;;;;;9.02;6.05;;;;;;;;;;4995484;28;20026;-87
2022/09/11 06:59:32;;;;;;;17.77;8.45;;;;;;;;;;4983237;28;20026;-86
2022/09/11 07:01:59;;;;;;;14.88;6.82;;;;;;;;;;4983823;28;20045;-86
2022/09/11 07:04:28;;;;;;;9.02;6.63;;;;;;;;;;4983514;28;20033;-88
2022/09/11 07:06:54;;;;;;;10.80;6.85;;;;;;;;;;4999530;28;20412;-86
2022/09/11 07:09:21;;;;;;;12.57;7.10;;;;;;;;;;4983348;28;20040;-88
2022/09/11 07:11:49;;;;;;;15.85;7.32;;;;;;;;;;4999535;28;20504;-90
2022/09/11 07:14:20;;;;;;;8.93;6.97;;;;;;;;;;4983333;28;20152;-90
2022/09/11 07:16:54;;;;;;;9.10;6.80;;;;;;;;;;4985377;28;20507;-89
2022/09/11 07:19:26;;;;;;;10.32;6.57;;;;;;;;;;4997534;28;20404;-90
2022/09/11 07:21:52;;;;;;;11.98;7.15;;;;;;;;;;5016086;28;20415;-90
2022/09/11 07:24:20;;;;;;;10.55;6.57;;;;;;;;;;4999694;28;20037;-89
2022/09/11 07:26:47;;;;;;;12.70;6.38;;;;;;;;;;4999882;28;20041;-90
2022/09/11 07:29:17;;;;;;;14.10;6.45;;;;;;;;;;4983803;28;20551;-90
2022/09/11 07:31:45;;;;;;;8.88;5.93;;;;;;;;;;4986553;28;20038;-90
2022/09/11 07:34:12;;;;;;;13.50;6.65;;;;;;;;;;4996670;28;20034;-89
2022/09/11 07:36:38;;;;;;;10.10;6.63;;;;;;;;;;4981473;28;20045;-88
2022/09/11 07:39:06;;;;;;;8.88;6.05;;;;;;;;;;4997433;28;20033;-92
2022/09/11 07:41:34;;;;;;;10.05;6.22;;;;;;;;;;4999240;28;20120;-92
2022/09/11 07:44:10;;;;;;;14.02;7.00;;;;;;;;;;4996482;28;20038;-92
2022/09/11 07:46:40;;;;;;;11.02;6.05;;;;;;;;;;5012131;28;20477;-91
2022/09/11 07:49:08;;;;;;;20.45;8.18;;;;;;;;;;4978554;28;20072;-93
2022/09/11 07:51:38;;;;;;;9.05;6.22;;;;;;;;;;5032877;28;20095;-92
2022/09/11 07:54:04;;;;;;;12.40;6.78;;;;;;;;;;5002056;28;20052;-91
2022/09/11 07:56:30;;;;;;;11.98;5.95;;;;;;;;;;5021626;28;20511;-88
2022/09/11 07:58:55;;;;;;;12.65;6.75;;;;;;;;;;4989965;28;20041;-88
2022/09/11 08:01:26;;;;;;;13.00;6.57;;;;;;;;;;4984818;28;20416;-88
2022/09/11 08:03:58;;;;;;;13.65;6.40;;;;;;;;;;4987289;28;20049;-87
2022/09/11 08:06:24;;;;;;;16.15;7.97;;;;;;;;;;4986832;28;20044;-85
2022/09/11 08:08:53;;;;;;;10.55;6.85;;;;;;;;;;5000489;28;20034;-86
2022/09/11 08:11:28;;;;;;;11.82;7.97;;;;;;;;;;4992822;28;20029;-86
2022/09/11 08:13:54;;;;;;;12.48;7.97;;;;;;;;;;4991846;28;20045;-85
2022/09/11 08:16:21;;;;;;;11.50;6.55;;;;;;;;;;5000553;28;20034;-84
2022/09/11 08:18:47;;;;;;;10.10;6.47;;;;;;;;;;5014605;28;20034;-85
2022/09/11 08:21:13;;;;;;;10.23;7.07;;;;;;;;;;5000147;28;20034;-85
2022/09/11 08:23:40;;;;;;;9.88;7.13;;;;;;;;;;4980576;28;20037;-84
2022/09/11 08:26:11;;;;;;;13.10;6.40;;;;;;;;;;4977855;28;20037;-84
2022/09/11 08:28:38;;;;;;;9.73;6.05;;;;;;;;;;5000553;28;20125;-85
2022/09/11 08:31:05;;;;;;;10.18;5.90;;;;;;;;;;5001595;28;20040;-85
2022/09/11 08:33:33;;;;;;;10.98;6.63;;;;;;;;;;5006296;28;20038;-84
2022/09/11 08:36:01;;;;;;;9.38;5.70;;;;;;;;;;4987898;28;20064;-85
2022/09/11 08:38:28;;;;;;;8.20;6.47;;;;;;;;;;4976757;28;20103;-85
2022/09/11 08:40:58;;;;;;;10.13;6.47;;;;;;;;;;4995561;28;20408;-84
2022/09/11 08:43:33;;;;;;;8.20;5.68;;;;;;;;;;4998708;28;20038;-84
2022/09/11 08:46:04;;;;;;;10.45;6.47;;;;;;;;;;4990951;28;20427;-84
2022/09/11 08:49:21;;;;;;;11.40;5.87;;;;;;;;;;5012066;28;20030;-84
2022/09/11 08:51:48;;;;;;;9.68;6.97;;;;;;;;;;4980757;28;20276;-84
2022/09/11 08:54:26;;;;;;;9.50;6.57;;;;;;;;;;4986417;28;20044;-84
2022/09/11 08:57:00;;;;;;;9.07;6.03;;;;;;;;;;5007157;28;20030;-87
2022/09/11 08:59:49;;;;;;;11.82;6.43;;;;;;;;;;5002717;28;20570;-86
2022/09/11 09:02:27;;;;;;;9.13;6.47;;;;;;;;;;5006191;28;20111;-86
2022/09/11 09:05:13;;;;;;;11.40;6.10;;;;;;;;;;5016751;28;20523;-85
2022/09/11 09:08:03;;;;;;;9.45;7.07;;;;;;;;;;5035557;28;20033;-86
2022/09/11 09:10:46;;;;;;;14.40;8.95;;;;;;;;;;5017903;28;20033;-85
2022/09/11 09:13:44;;;;;;;11.02;7.50;;;;;;;;;;5037920;28;20095;-85
2022/09/11 09:16:30;;;;;;;13.48;9.02;;;;;;;;;;5022626;28;20053;-84
2022/09/11 09:19:00;;;;;;;15.48;9.85;;;;;;;;;;5023255;28;20033;-83
2022/09/11 09:21:34;;;;;;;21.77;10.85;;;;;;;;;;5016044;28;20129;-81
2022/09/11 09:24:02;;;;;;;13.10;9.90;;;;;;;;;;5018444;28;20040;-87
2022/09/11 09:26:31;;;;;;;14.15;9.40;;;;;;;;;;5000360;28;20109;-80
2022/09/11 09:28:58;;;;;;;17.48;8.95;;;;;;;;;;5016803;28;20129;-82
2022/09/11 09:31:27;;;;;;;16.20;9.60;;;;;;;;;;5036827;28;20040;-83
2022/09/11 09:34:05;;;;;;;11.98;8.73;;;;;;;;;;4999793;28;20068;-83
2022/09/11 09:36:50;;;;;;;14.70;9.98;;;;;;;;;;5034185;28;20052;-84
2022/09/11 09:39:17;;;;;;;14.38;9.43;;;;;;;;;;4998151;28;20065;-83
2022/09/11 09:41:55;;;;;;;12.43;8.35;;;;;;;;;;5002736;28;20386;-85
2022/09/11 09:44:42;;;;;;;11.27;7.95;;;;;;;;;;5008513;28;20095;-83
2022/09/11 09:47:11;;;;;;;9.05;7.35;;;;;;;;;;5019602;28;20033;-83
2022/09/11 09:49:37;;;;;;;13.35;7.32;;;;;;;;;;5016490;28;20054;-83
2022/09/11 09:52:17;;;;;;;9.73;6.65;;;;;;;;;;5000811;28;20034;-83
2022/09/11 09:54:42;;;;;;;12.63;6.90;;;;;;;;;;5034363;28;20472;-82
2022/09/11 09:57:10;;;;;;;10.35;7.35;;;;;;;;;;5002683;28;20071;-81
2022/09/11 09:59:54;;;;;;;16.33;8.10;;;;;;;;;;5018504;28;20518;-86
2022/09/11 10:02:40;;;;;;;11.13;7.25;;;;;;;;;;5027555;28;20536;-83
2022/09/11 10:05:41;;;;;;;13.00;7.72;;;;;;;;;;5011074;28;20560;-81
2022/09/11 10:08:32;;;;;;;11.20;6.93;;;;;;;;;;5018108;28;20033;-82
2022/09/11 10:11:04;;;;;;;10.73;7.03;;;;;;;;;;5018367;28;20041;-81
2022/09/11 10:13:35;;;;;;;8.93;6.88;;;;;;;;;;5013937;28;20030;-84
2022/09/11 10:16:02;;;;;;;10.40;7.22;;;;;;;;;;5012509;28;20042;-81
2022/09/11 10:18:31;;;;;;;12.35;7.72;;;;;;;;;;4985462;28;20407;-83
2022/09/11 10:21:11;;;;;;;8.15;6.30;;;;;;;;;;5001693;28;20042;-86
2022/09/11 10:23:46;;;;;;;9.85;6.40;;;;;;;;;;5016572;28;20052;-82
2022/09/11 10:26:15;;;;;;;13.40;6.72;;;;;;;;;;5037914;28;20459;-85
2022/09/11 10:28:41;;;;;;;10.18;6.32;;;;;;;;;;5003817;28;20120;-85
2022/09/11 10:31:17;;;;;;;13.02;6.18;;;;;;;;;;5005230;28;20125;-84
2022/09/11 10:33:50;;;;;;;14.77;6.63;;;;;;;;;;5015929;28;20084;-81
2022/09/11 10:36:20;;;;;;;20.75;6.88;;;;;;;;;;5014493;28;20049;-81
2022/09/11 10:38:46;;;;;;;11.63;5.22;;;;;;;;;;4984174;28;20029;-81
2022/09/11 10:41:11;;;;;;;15.75;5.50;;;;;;;;;;4982981;28;20037;-81
2022/09/11 10:43:59;;;;;;;14.50;5.68;;;;;;;;;;5031604;28;20876;-81
2022/09/11 10:46:35;;;;;;;10.48;5.78;;;;;;;;;;5013561;28;20243;-82
2022/09/11 10:49:04;;;;;;;23.55;6.72;;;;;;;;;;5015160;28;20788;-82
2022/09/11 10:51:39;;;;;;;10.55;4.65;;;;;;;;;;5014174;28;20046;-82
2022/09/11 10:54:26;;;;;;;10.60;3.90;;;;;;;;;;5013638;28;20040;-82
2022/09/11 10:57:17;;;;;;;7.38;4.20;;;;;;;;;;5014348;28;20037;-82
2022/09/11 10:59:47;;;;;;;7.13;4.35;;;;;;;;;;4984408;28;20124;-82
2022/09/11 11:02:19;;;;;;;7.22;4.38;;;;;;;;;;4998571;28;20073;-82
2022/09/11 11:04:44;;;;;;;8.10;4.68;;;;;;;;;;4982894;28;20038;-82
2022/09/11 11:07:18;;;;;;;6.10;4.50;;;;;;;;;;4982321;28;20063;-82
2022/09/11 11:09:53;;;;;;;6.03;4.10;;;;;;;;;;4980953;28;20033;-82
2022/09/11 11:12:32;;;;;;;6.78;4.30;;;;;;;;;;4997878;28;20045;-82
2022/09/11 11:15:26;;;;;;;4.40;3.05;;;;;;;;;;5014384;28;20084;-81
2022/09/11 11:18:10;;;;;;;5.43;3.50;;;;;;;;;;4998082;28;20502;-82
2022/09/11 11:20:47;;;;;;;5.00;3.38;;;;;;;;;;4999466;28;20515;-82
2022/09/11 11:23:51;;;;;;;5.15;3.30;;;;;;;;;;4998211;28;20041;-82
2022/09/11 11:26:30;;;;;;;4.57;3.42;;;;;;;;;;5009981;28;20061;-81
2022/09/11 11:29:20;;;;;;;6.45;3.15;;;;;;;;;;5014262;28;20037;-82
2022/09/11 11:31:57;;;;;;;5.88;3.45;;;;;;;;;;5014200;28;20034;-82
2022/09/11 11:35:00;;;;;;;4.05;2.60;;;;;;;;;;5030845;28;20049;-82
2022/09/11 11:37:33;;;;;;;4.32;2.60;;;;;;;;;;5044245;28;20564;-82
2022/09/11 11:40:24;;;;;;;4.40;2.67;;;;;;;;;;4981797;28;20036;-81
2022/09/11 11:43:10;;;;;;;4.85;3.00;;;;;;;;;;5016093;28;20122;-82
2022/09/11 11:45:39;;;;;;;3.22;2.80;;;;;;;;;;5013250;28;20069;-81
2022/09/11 11:48:54;;;;;;;4.10;2.63;;;;;;;;;;4997948;28;20163;-82
2022/09/11 11:51:24;;;;;;;4.57;2.70;;;;;;;;;;4995778;28;20099;-82
2022/09/11 11:53:57;;;;;;;4.45;2.92;;;;;;;;;;5014437;28;20034;-81
2022/09/11 11:56:38;;;;;;;3.25;2.47;;;;;;;;;;4998010;28;20044;-82
2022/09/11 11:59:12;;;;;;;4.55;2.40;;;;;;;;;;5030149;28;20116;-81
2022/09/11 12:01:39;;;;;;;4.00;2.67;;;;;;;;;;5030460;28;20506;-81
2022/09/11 12:04:23;;;;;;;3.83;2.70;;;;;;;;;;5013609;28;20112;-82
2022/09/11 12:06:49;;;;;;;4.00;2.80;;;;;;;;;;5030247;28;20033;-82
2022/09/11 12:09:15;;;;;;;3.13;2.55;;;;;;;;;;4982099;28;20411;-81
2022/09/11 12:11:41;;;;;;;3.20;2.60;;;;;;;;;;4977678;28;20049;-81
2022/09/11 12:14:19;;;;;;;4.25;2.95;;;;;;;;;;4993895;28;20034;-82
2022/09/11 12:16:46;;;;;;;2.97;2.25;;;;;;;;;;4979451;28;20041;-81
2022/09/11 12:19:16;;;;;;;3.42;2.38;;;;;;;;;;4994548;28;20111;-81
2022/09/11 12:21:53;;;;;;;3.63;2.70;;;;;;;;;;5010709;28;20073;-82
2022/09/11 12:24:20;;;;;;;4.22;2.63;;;;;;;;;;4993857;28;20501;-81
2022/09/11 12:27:07;;;;;;;3.20;2.67;;;;;;;;;;4977786;28;20037;-81
2022/09/11 12:29:38;;;;;;;4.63;2.85;;;;;;;;;;5012828;28;20475;-81
2022/09/11 12:32:04;;;;;;;3.33;2.50;;;;;;;;;;4994017;28;20074;-81
2022/09/11 12:34:38;;;;;;;3.28;2.50;;;;;;;;;;5011096;28;20073;-82
2022/09/11 12:37:06;;;;;;;3.92;2.42;;;;;;;;;;5004228;28;20523;-81
2022/09/11 12:40:05;;;;;;;3.83;2.40;;;;;;;;;;4985538;28;20033;-81
2022/09/11 12:42:31;;;;;;;2.83;2.05;;;;;;;;;;4962384;28;20057;-81
2022/09/11 12:44:57;;;;;;;3.70;2.58;;;;;;;;;;5020427;28;20037;-82
2022/09/11 12:47:33;;;;;;;4.03;2.30;;;;;;;;;;5020847;28;20474;-81
2022/09/11 12:50:05;;;;;;;3.15;2.30;;;;;;;;;;5004647;28;20106;-82
2022/09/11 12:52:53;;;;;;;3.33;2.30;;;;;;;;;;5037431;28;20501;-82
2022/09/11 12:55:28;;;;;;;3.45;2.63;;;;;;;;;;5037311;28;20278;-82
2022/09/11 12:57:53;;;;;;;2.95;2.05;;;;;;;;;;5020680;28;20090;-82
2022/09/11 13:00:27;;;;;;;2.97;2.08;;;;;;;;;;5020753;28;20407;-81
2022/09/11 13:02:54;;;;;;;3.40;2.33;;;;;;;;;;5004437;28;20083;-82
2022/09/11 13:05:26;;;;;;;3.47;1.90;;;;;;;;;;5020419;28;20439;-82
2022/09/11 13:07:55;;;;;;;2.95;2.00;;;;;;;;;;5020197;28;20140;-82
2022/09/11 13:10:29;;;;;;;2.58;2.20;;;;;;;;;;5020484;28;20033;-82
2022/09/11 13:12:54;;;;;;;3.35;2.33;;;;;;;;;;5036941;28;20029;-82
2022/09/11 13:15:31;;;;;;;2.88;2.25;;;;;;;;;;5020538;28;20079;-82
2022/09/11 13:17:56;;;;;;;3.53;2.10;;;;;;;;;;4988423;28;20114;-81
2022/09/11 13:20:22;;;;;;;3.55;2.35;;;;;;;;;;4997597;28;20124;-81
2022/09/11 13:22:49;;;;;;;3.90;2.45;;;;;;;;;;4980663;28;20492;-82
2022/09/11 13:25:19;;;;;;;3.85;2.10;;;;;;;;;;4997173;28;20038;-81
2022/09/11 13:27:46;;;;;;;3.22;2.33;;;;;;;;;;4981267;28;20026;-81
2022/09/11 13:30:16;;;;;;;3.40;2.33;;;;;;;;;;5002454;28;20041;-82
2022/09/11 13:32:42;;;;;;;2.38;1.83;;;;;;;;;;5016304;28;20041;-80
2022/09/11 13:35:23;;;;;;;3.33;2.33;;;;;;;;;;5033374;28;20103;-83
2022/09/11 13:37:57;;;;;;;2.27;1.87;;;;;;;;;;5033130;28;20037;-81
2022/09/11 13:40:46;;;;;;;3.60;1.98;;;;;;;;;;4984079;28;20095;-81
2022/09/11 13:43:17;;;;;;;3.38;2.22;;;;;;;;;;4999614;28;20037;-80
2022/09/11 13:45:43;;;;;;;3.70;1.95;;;;;;;;;;4967569;28;20038;-82
2022/09/11 13:48:21;;;;;;;3.15;2.50;;;;;;;;;;4999879;28;20030;-81
2022/09/11 13:50:50;;;;;;;4.22;2.25;;;;;;;;;;5032264;28;20033;-81
2022/09/11 13:53:17;;;;;;;2.90;2.03;;;;;;;;;;5032172;28;20045;-81
2022/09/11 13:55:45;;;;;;;2.97;2.13;;;;;;;;;;5032449;28;20030;-81
2022/09/11 13:58:24;;;;;;;3.92;2.25;;;;;;;;;;5016126;28;20037;-81
2022/09/11 14:00:51;;;;;;;2.78;2.00;;;;;;;;;;5015896;28;20030;-82
2022/09/11 14:03:30;;;;;;;3.90;2.50;;;;;;;;;;5015594;28;20049;-81
2022/09/11 14:05:58;;;;;;;3.33;2.35;;;;;;;;;;5015744;28;20043;-81
2022/09/11 14:08:33;;;;;;;3.70;2.45;;;;;;;;;;5032033;28;20099;-81
2022/09/11 14:11:09;;;;;;;2.85;1.60;;;;;;;;;;5011334;28;20033;-82
2022/09/11 14:13:49;;;;;;;2.90;1.90;;;;;;;;;;4979965;28;20137;-81
2022/09/11 14:16:14;;;;;;;2.75;2.40;;;;;;;;;;4981987;28;20038;-81
2022/09/11 14:18:52;;;;;;;2.83;1.90;;;;;;;;;;5031896;28;20037;-81
2022/09/11 14:21:24;;;;;;;2.78;2.25;;;;;;;;;;4999430;28;20403;-81
2022/09/11 14:23:50;;;;;;;;;;;;;;;;;;4999965;28;20134;-82
2022/09/11 14:26:18;;;;;;;2.47;2.10;;;;;;;;;;5065154;28;19995;-81
2022/09/11 14:28:50;;;;;;;3.33;3.03;;;;;;;;;;4999617;28;20096;-81
2022/09/11 14:31:35;;;;;;;3.63;2.22;;;;;;;;;;5016238;28;20121;-81
2022/09/11 14:34:28;;;;;;;2.63;1.80;;;;;;;;;;5031523;28;20073;-82
2022/09/11 14:36:57;;;;;;;;;;;;;;;;;;5015212;28;20037;-81
2022/09/11 14:39:46;;;;;;;3.20;2.42;;;;;;;;;;4982814;28;19916;-81
2022/09/11 14:42:20;;;;;;;3.80;2.10;;;;;;;;;;4986001;28;20037;-81
2022/09/11 14:44:45;;;;;;;2.50;1.80;;;;;;;;;;4996236;28;20057;-81
2022/09/11 14:47:16;;;;;;;2.72;2.00;;;;;;;;;;4979207;28;20120;-81
2022/09/11 14:49:42;;;;;;;4.03;1.92;;;;;;;;;;5017786;28;20508;-81
2022/09/11 14:52:08;;;;;;;2.70;2.10;;;;;;;;;;4995605;28;20034;-80
2022/09/11 14:54:34;;;;;;;2.40;1.67;;;;;;;;;;4995289;28;20038;-81
2022/09/11 14:56:59;;;;;;;3.33;2.50;;;;;;;;;;4994556;28;20042;-81
2022/09/11 14:59:27;;;;;;;3.42;2.40;;;;;;;;;;4995353;28;20417;-81
2022/09/11 15:01:53;;;;;;;3.70;2.80;;;;;;;;;;4979399;28;20072;-81
2022/09/11 15:04:19;;;;;;;3.88;2.10;;;;;;;;;;4979113;28;20107;-81
2022/09/11 15:06:50;;;;;;;3.28;2.25;;;;;;;;;;4994961;28;20042;-81
2022/09/11 15:09:15;;;;;;;2.92;2.53;;;;;;;;;;4995096;28;20037;-81